Time;durP1;ratioP1;P1;durP2;ratioP2;P2;SDS_P1;SDS_P2;PMS_P1;PMS_P2;Temp;Humidity;BMP_temperature;BMP_pressure;BME280_temperature;BME280_humidity;BME280_pressure;Samples;Min_cycle;Max_cycle;Signal;HPM_P1;HPM_P2
2024/01/13 00:02:02;;;;;;;;;;;18.40;58.30;;;;;;5106568;27;43033;-81
2024/01/13 00:04:27;;;;;;;;;;;18.40;58.30;;;;;;5106679;27;43122;-81
2024/01/13 00:06:53;;;;;;;;;;;18.40;58.10;;;;;;5106815;27;43753;-80
2024/01/13 00:09:18;;;;;;;;;;;18.50;58.60;;;;;;5105921;27;42919;-81
2024/01/13 00:11:44;;;;;;;;;;;18.50;58.90;;;;;;5104968;27;42975;-80
2024/01/13 00:14:09;;;;;;;;;;;18.50;58.80;;;;;;5099269;27;43471;-80
2024/01/13 00:16:35;;;;;;;;;;;18.50;59.00;;;;;;5101616;27;43695;-80
2024/01/13 00:19:06;;;;;;;;;;;18.40;59.10;;;;;;5113244;27;42985;-80
2024/01/13 00:21:32;;;;;;;;;;;18.30;58.80;;;;;;5106606;27;43000;-80
2024/01/13 00:23:57;;;;;;;;;;;18.50;59.00;;;;;;5106009;27;43242;-80
2024/01/13 00:26:23;;;;;;;;;;;18.60;59.10;;;;;;5093092;27;43701;-81
2024/01/13 00:28:49;;;;;;;;;;;18.50;59.00;;;;;;5101072;27;42995;-81
2024/01/13 00:31:14;;;;;;;;;;;18.80;59.00;;;;;;5093927;27;45001;-80
2024/01/13 00:33:43;;;;;;;;;;;;;;;;;;5093656;27;43086;-80
2024/01/13 00:36:11;;;;;;;;;;;18.50;59.40;;;;;;5091543;27;43223;-80
2024/01/13 00:38:40;;;;;;;;;;;;;;;;;;5101575;27;43027;-80
2024/01/13 00:41:05;;;;;;;;;;;18.50;60.50;;;;;;5103650;27;43440;-80
2024/01/13 00:43:31;;;;;;;;;;;;;;;;;;5119734;27;42977;-80
2024/01/13 00:45:57;;;;;;;;;;;18.50;58.00;;;;;;5113728;27;42892;-81
2024/01/13 00:48:22;;;;;;;;;;;18.50;58.60;;;;;;5113171;27;42844;-80
2024/01/13 00:50:48;;;;;;;;;;;18.50;58.00;;;;;;5116851;27;43730;-80
2024/01/13 00:53:13;;;;;;;;;;;18.50;58.80;;;;;;5127230;27;43248;-81
2024/01/13 00:55:39;;;;;;;;;;;18.50;58.70;;;;;;5119992;27;42970;-81
2024/01/13 00:58:04;;;;;;;;;;;18.50;58.70;;;;;;5112116;27;42898;-80
2024/01/13 01:00:30;;;;;;;;;;;18.50;58.80;;;;;;5106214;27;44482;-81
2024/01/13 01:02:55;;;;;;;;;;;18.50;58.70;;;;;;5098355;27;43018;-81
2024/01/13 01:05:21;;;;;;;;;;;18.50;62.20;;;;;;5106857;27;42981;-80
2024/01/13 01:07:47;;;;;;;;;;;18.50;59.90;;;;;;5105380;27;42944;-81
2024/01/13 01:10:13;;;;;;;;;;;18.40;58.20;;;;;;5107928;27;43572;-80
2024/01/13 01:12:38;;;;;;;;;;;18.60;60.40;;;;;;5106058;27;42939;-80
2024/01/13 01:15:04;;;;;;;;;;;18.40;59.10;;;;;;5105734;27;42983;-81
2024/01/13 01:17:30;;;;;;;;;;;18.40;59.30;;;;;;5105624;27;43072;-80
2024/01/13 01:19:55;;;;;;;;;;;18.50;61.30;;;;;;5105204;27;43892;-81
2024/01/13 01:22:22;;;;;;;;;;;18.30;58.60;;;;;;5105580;27;43054;-80
2024/01/13 01:24:47;;;;;;;;;;;18.20;61.80;;;;;;5106515;27;43071;-80
2024/01/13 01:27:13;;;;;;;;;;;18.40;58.40;;;;;;5106272;27;42921;-80
2024/01/13 01:29:38;;;;;;;;;;;18.30;58.30;;;;;;5106193;27;43143;-80
2024/01/13 01:32:04;;;;;;;;;;;18.30;58.40;;;;;;5106307;27;43091;-80
2024/01/13 01:34:29;;;;;;;;;;;18.40;59.00;;;;;;5105864;27;43232;-81
2024/01/13 01:36:55;;;;;;;;;;;18.30;58.40;;;;;;5106072;27;42858;-80
2024/01/13 01:39:20;;;;;;;;;;;18.30;58.40;;;;;;5106631;27;42965;-81
2024/01/13 01:41:46;;;;;;;;;;;18.40;59.00;;;;;;5106133;27;42917;-80
2024/01/13 01:44:11;;;;;;;;;;;18.40;58.40;;;;;;5118390;27;43775;-81
2024/01/13 01:46:38;;;;;;;;;;;18.30;58.90;;;;;;5105796;27;42998;-80
2024/01/13 01:49:03;;;;;;;;;;;;;;;;;;5104715;27;42983;-81
2024/01/13 01:51:30;;;;;;;;;;;18.50;61.20;;;;;;5104281;27;43070;-80
2024/01/13 01:53:55;;;;;;;;;;;18.40;58.40;;;;;;5104751;27;43598;-80
2024/01/13 01:56:25;;;;;;;;;;;18.40;58.90;;;;;;5105911;27;42986;-80
2024/01/13 01:58:52;;;;;;;;;;;18.40;58.90;;;;;;5092802;27;43618;-80
2024/01/13 02:01:18;;;;;;;;;;;18.40;59.00;;;;;;5105893;27;43133;-80
2024/01/13 02:03:43;;;;;;;;;;;18.40;59.10;;;;;;5105872;27;43739;-80
2024/01/13 02:06:09;;;;;;;;;;;18.40;59.20;;;;;;5086121;27;43106;-81
2024/01/13 02:08:35;;;;;;;;;;;18.30;59.20;;;;;;5105466;27;43031;-80
2024/01/13 02:11:01;;;;;;;;;;;18.30;59.20;;;;;;5105689;27;42943;-80
2024/01/13 02:13:26;;;;;;;;;;;18.40;59.30;;;;;;5105150;27;43092;-81
2024/01/13 02:15:52;;;;;;;;;;;18.40;59.40;;;;;;5104390;27;43110;-80
2024/01/13 02:18:18;;;;;;;;;;;18.40;58.90;;;;;;5103625;27;43859;-81
2024/01/13 02:20:43;;;;;;;;;;;18.40;59.40;;;;;;5104074;27;43164;-81
2024/01/13 02:23:09;;;;;;;;;;;18.40;59.40;;;;;;5104907;27;43436;-80
2024/01/13 02:25:34;;;;;;;;;;;18.40;59.60;;;;;;5105058;27;42968;-81
2024/01/13 02:28:00;;;;;;;;;;;18.40;59.10;;;;;;5091285;27;43979;-81
2024/01/13 02:30:25;;;;;;;;;;;18.30;59.20;;;;;;5104046;27;43241;-81
2024/01/13 02:32:51;;;;;;;;;;;18.40;59.70;;;;;;5104324;27;43445;-81
2024/01/13 02:35:16;;;;;;;;;;;18.40;59.80;;;;;;5103470;27;42947;-81
2024/01/13 02:37:42;;;;;;;;;;;18.40;60.00;;;;;;5105058;27;42828;-79
2024/01/13 02:40:09;;;;;;;;;;;18.40;60.10;;;;;;5104358;27;43054;-80
2024/01/13 02:42:35;;;;;;;;;;;18.40;60.10;;;;;;5103207;27;43305;-81
2024/01/13 02:45:00;;;;;;;;;;;18.40;60.30;;;;;;5103440;27;42924;-81
2024/01/13 02:47:33;;;;;;;;;;;18.40;60.40;;;;;;5102590;27;44127;-81
2024/01/13 02:49:59;;;;;;;;;;;18.40;60.40;;;;;;5102676;27;42903;-80
2024/01/13 02:52:24;;;;;;;;;;;18.40;60.50;;;;;;5099968;27;42876;-80
2024/01/13 02:54:50;;;;;;;;;;;18.40;60.60;;;;;;5103377;27;43149;-81
2024/01/13 02:57:15;;;;;;;;;;;18.40;60.50;;;;;;5104704;27;42706;-80
2024/01/13 02:59:40;;;;;;;;;;;18.40;60.50;;;;;;5104116;27;42844;-80
2024/01/13 03:02:06;;;;;;;;;;;18.40;60.50;;;;;;5104470;27;42974;-81
2024/01/13 03:04:31;;;;;;;;;;;18.40;60.70;;;;;;5104639;27;42966;-80
2024/01/13 03:06:57;;;;;;;;;;;18.40;60.80;;;;;;5104081;27;42889;-81
2024/01/13 03:09:23;;;;;;;;;;;18.40;60.20;;;;;;5094074;27;42935;-81
2024/01/13 03:11:48;;;;;;;;;;;18.40;60.80;;;;;;5103920;27;43943;-80
2024/01/13 03:14:13;;;;;;;;;;;18.40;61.00;;;;;;5105289;27;42882;-80
2024/01/13 03:16:39;;;;;;;;;;;18.40;61.00;;;;;;5100620;27;42888;-81
2024/01/13 03:19:05;;;;;;;;;;;18.40;61.00;;;;;;5104467;27;42848;-81
2024/01/13 03:21:30;;;;;;;;;;;18.40;61.10;;;;;;5102087;27;44564;-80
2024/01/13 03:23:56;;;;;;;;;;;18.40;61.10;;;;;;5103919;27;42951;-81
2024/01/13 03:26:21;;;;;;;;;;;18.40;61.10;;;;;;5103661;27;42980;-80
2024/01/13 03:28:47;;;;;;;;;;;18.40;60.70;;;;;;5106130;27;42958;-81
2024/01/13 03:31:13;;;;;;;;;;;18.40;61.10;;;;;;5108311;27;43442;-80
2024/01/13 03:33:38;;;;;;;;;;;18.40;61.10;;;;;;5093478;27;42908;-81
2024/01/13 03:36:04;;;;;;;;;;;18.40;61.30;;;;;;5105430;27;43426;-80
2024/01/13 03:38:30;;;;;;;;;;;18.40;61.30;;;;;;5107042;27;43224;-80
2024/01/13 03:40:55;;;;;;;;;;;18.40;61.30;;;;;;5107106;27;42936;-80
2024/01/13 03:43:21;;;;;;;;;;;18.40;61.50;;;;;;5107425;27;43793;-80
2024/01/13 03:45:46;;;;;;;;;;;18.40;61.60;;;;;;5107599;27;43138;-81
2024/01/13 03:48:12;;;;;;;;;;;18.40;61.00;;;;;;5106961;27;43101;-81
2024/01/13 03:50:37;;;;;;;;;;;18.40;61.10;;;;;;5105150;27;43899;-81
2024/01/13 03:53:03;;;;;;;;;;;18.40;61.20;;;;;;5119501;27;42940;-81
2024/01/13 03:55:28;;;;;;;;;;;18.40;61.80;;;;;;5107241;27;43255;-81
2024/01/13 03:57:54;;;;;;;;;;;18.40;61.20;;;;;;5107039;27;42877;-81
2024/01/13 04:00:19;;;;;;;;;;;18.40;61.40;;;;;;5107177;27;43880;-80
2024/01/13 04:02:45;;;;;;;;;;;18.40;62.10;;;;;;5106424;27;43022;-81
2024/01/13 04:05:10;;;;;;;;;;;18.40;61.80;;;;;;5106908;27;42983;-80
2024/01/13 04:07:36;;;;;;;;;;;18.40;62.10;;;;;;5106517;27;42941;-81
2024/01/13 04:10:02;;;;;;;;;;;18.40;62.40;;;;;;5106790;27;43477;-80
2024/01/13 04:12:27;;;;;;;;;;;18.40;61.50;;;;;;5107592;27;42892;-80
2024/01/13 04:14:53;;;;;;;;;;;18.40;61.60;;;;;;5106445;27;43749;-81
2024/01/13 04:17:18;;;;;;;;;;;18.40;62.10;;;;;;5104681;27;42804;-81
2024/01/13 04:19:44;;;;;;;;;;;18.30;61.60;;;;;;5105286;27;43016;-81
2024/01/13 04:22:09;;;;;;;;;;;18.40;62.30;;;;;;5106232;27;43013;-80
2024/01/13 04:24:35;;;;;;;;;;;18.40;61.90;;;;;;5106654;27;43519;-81
2024/01/13 04:27:00;;;;;;;;;;;18.40;62.80;;;;;;5107310;27;42883;-80
2024/01/13 04:29:26;;;;;;;;;;;18.40;62.50;;;;;;5105253;27;42990;-81
2024/01/13 04:31:51;;;;;;;;;;;18.30;62.40;;;;;;5104854;27;43256;-82
2024/01/13 04:34:17;;;;;;;;;;;18.40;62.50;;;;;;5106508;27;43769;-81
2024/01/13 04:36:42;;;;;;;;;;;18.40;61.90;;;;;;5106802;27;42907;-80
2024/01/13 04:39:08;;;;;;;;;;;18.40;62.50;;;;;;5105629;27;43499;-81
2024/01/13 04:41:34;;;;;;;;;;;18.40;62.60;;;;;;5104663;27;42936;-81
2024/01/13 04:43:59;;;;;;;;;;;18.30;61.60;;;;;;5104509;27;44678;-81
2024/01/13 04:46:25;;;;;;;;;;;18.30;61.60;;;;;;5105228;27;43478;-81
2024/01/13 04:48:50;;;;;;;;;;;18.40;62.80;;;;;;5106458;27;42963;-81
2024/01/13 04:51:16;;;;;;;;;;;18.30;61.80;;;;;;5106175;27;43126;-80
2024/01/13 04:53:42;;;;;;;;;;;18.30;61.80;;;;;;5106188;27;42956;-81
2024/01/13 04:56:07;;;;;;;;;;;18.40;62.70;;;;;;5101136;27;42972;-80
2024/01/13 04:58:33;;;;;;;;;;;18.40;62.00;;;;;;5105189;27;43035;-81
2024/01/13 05:00:58;;;;;;;;;;;18.40;62.80;;;;;;5104829;27;43027;-81
2024/01/13 05:03:24;;;;;;;;;;;18.40;62.00;;;;;;5106323;27;43355;-80
2024/01/13 05:05:49;;;;;;;;;;;18.40;61.80;;;;;;5104664;27;43094;-80
2024/01/13 05:08:15;;;;;;;;;;;18.40;62.30;;;;;;5105806;27;43088;-80
2024/01/13 05:10:40;;;;;;;;;;;18.40;62.20;;;;;;5106512;27;42948;-80
2024/01/13 05:13:06;;;;;;;;;;;18.40;63.10;;;;;;5106281;27;42983;-80
2024/01/13 05:15:32;;;;;;;;;;;18.30;62.80;;;;;;5105787;27;42962;-80
2024/01/13 05:17:57;;;;;;;;;;;18.40;62.90;;;;;;5104940;27;43562;-81
2024/01/13 05:20:23;;;;;;;;;;;18.30;62.20;;;;;;5106103;27;42977;-80
2024/01/13 05:22:48;;;;;;;;;;;18.30;62.30;;;;;;5103569;27;43519;-80
2024/01/13 05:25:14;;;;;;;;;;;18.40;63.30;;;;;;5105839;27;43232;-81
2024/01/13 05:27:39;;;;;;;;;;;18.40;62.10;;;;;;5103314;27;45430;-81
2024/01/13 05:30:05;;;;;;;;;;;18.30;63.00;;;;;;5109345;27;43043;-82
2024/01/13 05:32:31;;;;;;;;;;;18.30;62.00;;;;;;5111867;27;42956;-81
2024/01/13 05:34:57;;;;;;;;;;;18.40;62.10;;;;;;5105349;27;42816;-81
2024/01/13 05:37:22;;;;;;;;;;;18.40;62.00;;;;;;5105945;27;42939;-81
2024/01/13 05:39:48;;;;;;;;;;;18.30;61.90;;;;;;5106488;27;42980;-81
2024/01/13 05:42:13;;;;;;;;;;;18.30;62.50;;;;;;5103418;27;43131;-81
2024/01/13 05:44:39;;;;;;;;;;;18.30;61.80;;;;;;5093242;27;43330;-81
2024/01/13 05:47:05;;;;;;;;;;;18.30;61.70;;;;;;5096999;27;43594;-81
2024/01/13 05:49:30;;;;;;;;;;;18.40;61.60;;;;;;5102709;27;43028;-81
2024/01/13 05:51:56;;;;;;;;;;;18.40;61.80;;;;;;5105410;27;42854;-81
2024/01/13 05:54:21;;;;;;;;;;;18.30;62.50;;;;;;5105676;27;43201;-80
2024/01/13 05:56:47;;;;;;;;;;;18.30;62.60;;;;;;5104634;27;42836;-81
2024/01/13 05:59:12;;;;;;;;;;;18.40;61.80;;;;;;5106507;27;42885;-81
2024/01/13 06:01:38;;;;;;;;;;;19.70;63.60;;;;;;5100271;27;43387;-81
2024/01/13 06:04:04;;;;;;;;;;;18.30;62.50;;;;;;5096067;27;43066;-80
2024/01/13 06:06:29;;;;;;;;;;;18.30;62.40;;;;;;5104771;27;42986;-80
2024/01/13 06:08:55;;;;;;;;;;;18.40;62.70;;;;;;5105899;27;42864;-80
2024/01/13 06:11:20;;;;;;;;;;;18.30;62.50;;;;;;5105621;27;43987;-82
2024/01/13 06:13:46;;;;;;;;;;;18.20;62.70;;;;;;5104746;27;43274;-83
2024/01/13 06:16:13;;;;;;;;;;;18.30;60.60;;;;;;5103993;27;43727;-80
2024/01/13 06:18:38;;;;;;;;;;;18.30;61.70;;;;;;5103730;27;42882;-81
2024/01/13 06:21:04;;;;;;;;;;;18.30;61.20;;;;;;5105638;27;42843;-80
2024/01/13 06:23:29;;;;;;;;;;;18.30;61.80;;;;;;5105851;27;43300;-81
2024/01/13 06:25:55;;;;;;;;;;;18.30;61.00;;;;;;5104916;27;43520;-80
2024/01/13 06:28:20;;;;;;;;;;;18.30;61.30;;;;;;5104799;27;43573;-81
2024/01/13 06:30:46;;;;;;;;;;;18.30;61.30;;;;;;5103536;27;43378;-80
2024/01/13 06:33:12;;;;;;;;;;;18.30;61.80;;;;;;5100933;27;43231;-80
2024/01/13 06:35:37;;;;;;;;;;;18.30;61.50;;;;;;5100041;27;43509;-82
2024/01/13 06:38:03;;;;;;;;;;;18.20;61.10;;;;;;5114827;27;42987;-81
2024/01/13 06:40:28;;;;;;;;;;;18.30;61.80;;;;;;5117305;27;44224;-81
2024/01/13 06:42:54;;;;;;;;;;;18.30;62.10;;;;;;5100803;27;42997;-81
2024/01/13 06:45:19;;;;;;;;;;;18.30;61.80;;;;;;5108415;27;43056;-81
2024/01/13 06:47:45;;;;;;;;;;;18.30;61.80;;;;;;5098139;27;43598;-81
2024/01/13 06:50:10;;;;;;;;;;;18.30;61.70;;;;;;5097304;27;43203;-81
2024/01/13 06:52:37;;;;;;;;;;;18.30;61.50;;;;;;5104933;27;42997;-80
2024/01/13 06:55:03;;;;;;;;;;;18.30;61.50;;;;;;5104476;27;43127;-80
2024/01/13 06:57:28;;;;;;;;;;;18.30;62.10;;;;;;5104839;27;43076;-81
2024/01/13 06:59:54;;;;;;;;;;;18.30;61.70;;;;;;5103946;27;43458;-80
2024/01/13 07:02:19;;;;;;;;;;;18.30;61.60;;;;;;5104730;27;42887;-81
2024/01/13 07:04:47;;;;;;;;;;;18.20;60.90;;;;;;5089510;27;44609;-81
2024/01/13 07:07:13;;;;;;;;;;;18.30;61.90;;;;;;5102818;27;42982;-81
2024/01/13 07:09:38;;;;;;;;;;;18.30;61.90;;;;;;5102982;27;43120;-80
2024/01/13 07:12:05;;;;;;;;;;;18.30;61.70;;;;;;5094435;27;43184;-83
2024/01/13 07:14:31;;;;;;;;;;;18.30;61.50;;;;;;5115981;27;43404;-82
2024/01/13 07:16:57;;;;;;;;;;;18.30;61.00;;;;;;5112091;27;43821;-81
2024/01/13 07:19:22;;;;;;;;;;;18.30;61.30;;;;;;5111168;27;43159;-84
2024/01/13 07:21:48;;;;;;;;;;;18.30;61.40;;;;;;5097264;27;43207;-82
2024/01/13 07:24:13;;;;;;;;;;;18.30;61.80;;;;;;5094190;27;43250;-81
2024/01/13 07:26:39;;;;;;;;;;;19.90;61.10;;;;;;5101233;27;43929;-83
2024/01/13 07:29:05;;;;;;;;;;;18.30;60.80;;;;;;5106235;27;43447;-83
2024/01/13 07:31:31;;;;;;;;;;;18.30;61.60;;;;;;5102719;27;43016;-81
2024/01/13 07:33:56;;;;;;;;;;;18.30;61.60;;;;;;5100832;27;43251;-82
2024/01/13 07:36:22;;;;;;;;;;;18.30;62.00;;;;;;5095187;27;43005;-84
2024/01/13 07:38:47;;;;;;;;;;;18.30;61.70;;;;;;5094427;27;43443;-80
2024/01/13 07:41:13;;;;;;;;;;;18.30;61.60;;;;;;5101377;27;43003;-79
2024/01/13 07:43:38;;;;;;;;;;;18.30;61.60;;;;;;5112411;27;43144;-82
2024/01/13 07:46:04;;;;;;;;;;;18.30;61.30;;;;;;5093204;27;43102;-80
2024/01/13 07:48:29;;;;;;;;;;;18.30;61.40;;;;;;5098481;27;44101;-79
2024/01/13 07:50:55;;;;;;;;;;;18.30;60.50;;;;;;5107033;27;42904;-80
2024/01/13 07:53:20;;;;;;;;;;;18.30;59.20;;;;;;5109754;27;43149;-81
2024/01/13 07:55:46;;;;;;;;;;;18.30;59.90;;;;;;5093088;27;44409;-81
2024/01/13 07:58:11;;;;;;;;;;;18.30;58.80;;;;;;5091416;27;43747;-81
2024/01/13 08:00:37;;;;;;;;;;;18.10;51.60;;;;;;5088470;27;43096;-85
2024/01/13 08:03:04;;;;;;;;;;;17.80;44.70;;;;;;5096649;27;43272;-80
2024/01/13 08:05:31;;;;;;;;;;;17.40;39.30;;;;;;5099371;27;43179;-85
2024/01/13 08:07:56;;;;;;;;;;;17.00;37.30;;;;;;5103355;27;43426;-88
2024/01/13 08:10:22;;;;;;;;;;;16.60;35.90;;;;;;5102371;27;43049;-79
2024/01/13 08:12:48;;;;;;;;;;;16.20;36.50;;;;;;5106505;27;43925;-84
2024/01/13 08:15:14;;;;;;;;;;;16.00;37.00;;;;;;5105614;27;42885;-82
2024/01/13 08:17:39;;;;;;;;;;;15.70;36.30;;;;;;5110464;27;43319;-85
2024/01/13 08:20:05;;;;;;;;;;;15.50;36.60;;;;;;5105537;27;42901;-85
2024/01/13 08:22:31;;;;;;;;;;;15.30;36.70;;;;;;5112965;27;43118;-81
2024/01/13 08:24:56;;;;;;;;;;;15.20;36.00;;;;;;5104965;27;42999;-76
2024/01/13 08:27:23;;;;;;;;;;;15.00;37.00;;;;;;5110867;27;42813;-80
2024/01/13 08:29:48;;;;;;;;;;;14.90;37.20;;;;;;5103916;27;42908;-83
2024/01/13 08:32:14;;;;;;;;;;;14.80;36.50;;;;;;5101521;27;43817;-81
2024/01/13 08:34:39;;;;;;;;;;;14.80;40.60;;;;;;5107977;27;43018;-80
2024/01/13 08:37:05;;;;;;;;;;;14.80;41.90;;;;;;5092305;27;43854;-80
2024/01/13 08:39:32;;;;;;;;;;;15.00;45.00;;;;;;5091489;27;42809;-80
2024/01/13 08:41:57;;;;;;;;;;;15.50;46.80;;;;;;5111517;27;44667;-81
2024/01/13 08:44:23;;;;;;;;;;;15.60;48.60;;;;;;5127501;27;43057;-80
2024/01/13 08:46:48;;;;;;;;;;;16.00;49.10;;;;;;5108905;27;42998;-80
2024/01/13 08:49:14;;;;;;;;;;;16.20;49.60;;;;;;5097734;27;43042;-79
2024/01/13 08:51:39;;;;;;;;;;;16.30;49.80;;;;;;5103550;27;44298;-80
2024/01/13 08:54:05;;;;;;;;;;;16.50;50.50;;;;;;5107192;27;43241;-81
2024/01/13 08:56:34;;;;;;;;;;;16.60;50.40;;;;;;5106940;27;42885;-85
2024/01/13 08:58:59;;;;;;;;;;;16.60;49.20;;;;;;5111977;27;43405;-86
2024/01/13 09:01:25;;;;;;;;;;;16.70;48.80;;;;;;5114768;27;44042;-87
2024/01/13 09:03:50;;;;;;;;;;;16.80;50.20;;;;;;5104323;27;42998;-84
2024/01/13 09:06:16;;;;;;;;;;;16.90;50.10;;;;;;5112169;27;43627;-90
2024/01/13 09:08:41;;;;;;;;;;;17.00;50.40;;;;;;5115828;27;43122;-82
2024/01/13 09:11:07;;;;;;;;;;;17.10;51.10;;;;;;5107046;27;44016;-83
2024/01/13 09:13:32;;;;;;;;;;;17.20;51.10;;;;;;5101268;27;42963;-82
2024/01/13 09:15:58;;;;;;;;;;;17.20;50.60;;;;;;5115933;27;45574;-82
2024/01/13 09:18:25;;;;;;;;;;;17.30;51.20;;;;;;5103590;27;42992;-81
2024/01/13 09:20:50;;;;;;;;;;;17.30;51.20;;;;;;5107751;27;43411;-83
2024/01/13 09:23:16;;;;;;;;;;;17.40;51.30;;;;;;5106366;27;42928;-80
2024/01/13 09:25:41;;;;;;;;;;;17.40;51.60;;;;;;5111971;27;43031;-80
2024/01/13 09:28:07;;;;;;;;;;;17.50;51.10;;;;;;5105857;27;43363;-80
2024/01/13 09:30:32;;;;;;;;;;;17.50;51.80;;;;;;5106241;27;43459;-82
2024/01/13 09:32:58;;;;;;;;;;;17.50;51.80;;;;;;5106549;27;42830;-82
2024/01/13 09:35:23;;;;;;;;;;;17.50;51.90;;;;;;5102895;27;42928;-81
2024/01/13 09:37:49;;;;;;;;;;;17.50;52.00;;;;;;5107625;27;43026;-81
2024/01/13 09:40:16;;;;;;;;;;;17.60;51.60;;;;;;5116438;27;43186;-83
2024/01/13 09:43:02;;;;;;;;;;;17.50;52.40;;;;;;5121971;27;43166;-82
2024/01/13 09:45:28;;;;;;;;;;;17.60;52.00;;;;;;5120187;27;43816;-83
2024/01/13 09:47:54;;;;;;;;;;;17.60;52.20;;;;;;5110697;27;42916;-82
2024/01/13 09:50:20;;;;;;;;;;;17.70;52.30;;;;;;5102394;27;43364;-88
2024/01/13 09:52:46;;;;;;;;;;;17.60;52.50;;;;;;5105931;27;43229;-89
2024/01/13 09:55:13;;;;;;;;;;;17.60;52.10;;;;;;5109854;27;44104;-88
2024/01/13 09:57:39;;;;;;;;;;;17.70;52.70;;;;;;5106471;27;42924;-89
2024/01/13 10:00:04;;;;;;;;;;;17.70;52.40;;;;;;5105671;27;44108;-88
2024/01/13 10:02:30;;;;;;;;;;;17.70;52.90;;;;;;5106277;27;42981;-89
2024/01/13 10:04:55;;;;;;;;;;;17.80;53.00;;;;;;5105493;27;43460;-90
2024/01/13 10:07:21;;;;;;;;;;;17.80;53.10;;;;;;5105934;27;42916;-88
2024/01/13 10:09:47;;;;;;;;;;;17.70;52.50;;;;;;5105913;27;43102;-91
2024/01/13 10:12:12;;;;;;;;;;;17.80;53.20;;;;;;5109114;27;42888;-90
2024/01/13 10:14:38;;;;;;;;;;;17.80;53.10;;;;;;5107721;27;43322;-90
2024/01/13 10:17:04;;;;;;;;;;;17.80;53.10;;;;;;5106287;27;43048;-90
2024/01/13 10:19:34;;;;;;;;;;;17.80;53.20;;;;;;5106223;27;43004;-89
2024/01/13 10:22:01;;;;;;;;;;;17.80;53.20;;;;;;5104962;27;43039;-85
2024/01/13 10:24:28;;;;;;;;;;;17.80;53.30;;;;;;5095027;27;43748;-91
2024/01/13 10:26:53;;;;;;;;;;;17.80;52.80;;;;;;5100229;27;43123;-84
2024/01/13 10:29:22;;;;;;;;;;;17.90;53.40;;;;;;5109340;27;42912;-82
2024/01/13 10:31:50;;;;;;;;;;;17.90;53.50;;;;;;5122182;27;43083;-81
2024/01/13 10:34:19;;;;;;;;;;;17.90;53.50;;;;;;5115302;27;43777;-82
2024/01/13 10:36:45;;;;;;;;;;;17.90;53.50;;;;;;5114769;27;43176;-81
2024/01/13 10:39:10;;;;;;;;;;;17.90;53.70;;;;;;5115892;27;42965;-83
2024/01/13 10:41:37;;;;;;;;;;;17.90;53.60;;;;;;5105248;27;43020;-82
2024/01/13 10:44:07;;;;;;;;;;;17.90;53.70;;;;;;5111232;27;43020;-81
2024/01/13 10:46:36;;;;;;;;;;;17.90;53.30;;;;;;5114102;27;43104;-83
2024/01/13 10:49:08;;;;;;;;;;;18.00;53.90;;;;;;5111308;27;43494;-81
2024/01/13 10:51:35;;;;;;;;;;;18.00;53.80;;;;;;5104543;27;43224;-82
2024/01/13 10:54:01;;;;;;;;;;;18.00;53.90;;;;;;5115505;27;42991;-81
2024/01/13 10:56:27;;;;;;;;;;;18.00;54.00;;;;;;5099076;27;43211;-88
2024/01/13 10:58:54;;;;;;;;;;;18.00;54.50;;;;;;5098474;27;42890;-80
2024/01/13 11:01:20;;;;;;;;;;;18.00;54.40;;;;;;5106958;27;43148;-81
2024/01/13 11:03:47;;;;;;;;;;;14.80;53.20;;;;;;5102765;27;43813;-80
2024/01/13 11:06:12;;;;;;;;;;;18.10;54.80;;;;;;5100839;27;43393;-81
2024/01/13 11:08:38;;;;;;;;;;;18.10;54.70;;;;;;5092804;27;44122;-79
2024/01/13 11:11:05;;;;;;;;;;;18.10;54.60;;;;;;5098815;27;43082;-89
2024/01/13 11:13:32;;;;;;;;;;;18.10;54.70;;;;;;5097952;27;42995;-82
2024/01/13 11:16:11;;;;;;;;;;;18.10;54.70;;;;;;5101745;27;43045;-81
2024/01/13 11:18:37;;;;;;;;;;;18.10;54.70;;;;;;5097410;27;42954;-80
2024/01/13 11:21:07;;;;;;;;;;;18.00;54.70;;;;;;5096637;27;43257;-81
2024/01/13 11:23:45;;;;;;;;;;;18.00;54.80;;;;;;5098524;27;43274;-80
2024/01/13 11:26:14;;;;;;;;;;;18.10;54.80;;;;;;5099276;27;43210;-81
2024/01/13 11:28:49;;;;;;;;;;;18.10;54.90;;;;;;5101422;27;44211;-81
2024/01/13 11:31:30;;;;;;;;;;;18.00;54.90;;;;;;5103006;27;43011;-82
2024/01/13 11:33:56;;;;;;;;;;;18.10;55.10;;;;;;5103587;27;43013;-81
2024/01/13 11:36:22;;;;;;;;;;;18.10;55.20;;;;;;5096827;27;42973;-81
2024/01/13 11:38:48;;;;;;;;;;;18.10;55.30;;;;;;5102256;27;43549;-83
2024/01/13 11:41:16;;;;;;;;;;;18.10;55.30;;;;;;5096289;27;43177;-82
2024/01/13 11:43:44;;;;;;;;;;;18.10;55.40;;;;;;5087592;27;43633;-83
2024/01/13 11:46:10;;;;;;;;;;;18.10;55.30;;;;;;5105397;27;42960;-81
2024/01/13 11:48:37;;;;;;;;;;;18.20;55.60;;;;;;5103916;27;42995;-83
2024/01/13 11:51:08;;;;;;;;;;;18.20;55.60;;;;;;5100778;27;42952;-81
2024/01/13 11:53:41;;;;;;;;;;;18.20;56.00;;;;;;5099532;27;43333;-83
2024/01/13 11:56:07;;;;;;;;;;;18.10;55.60;;;;;;5096104;27;43047;-82
2024/01/13 11:58:33;;;;;;;;;;;18.20;55.70;;;;;;5103781;27;42951;-81
2024/01/13 12:01:00;;;;;;;;;;;18.10;55.60;;;;;;5103220;27;43113;-82
2024/01/13 12:03:25;;;;;;;;;;;18.10;55.70;;;;;;5101947;27;43457;-82
2024/01/13 12:05:51;;;;;;;;;;;18.20;55.80;;;;;;5102221;27;43367;-82
2024/01/13 12:08:16;;;;;;;;;;;18.10;55.70;;;;;;5098132;27;43918;-84
2024/01/13 12:10:42;;;;;;;;;;;18.10;55.60;;;;;;5104699;27;43199;-84
2024/01/13 12:13:15;;;;;;;;;;;18.20;55.50;;;;;;5107521;27;43015;-85
2024/01/13 12:15:45;;;;;;;;;;;18.20;55.50;;;;;;5101381;27;42953;-82
2024/01/13 12:18:21;;;;;;;;;;;18.20;55.00;;;;;;5107241;27;43879;-80
2024/01/13 12:20:47;;;;;;;;;;;18.20;55.30;;;;;;5102119;27;43108;-80
2024/01/13 12:23:13;;;;;;;;;;;18.10;55.30;;;;;;5109172;27;43535;-79
2024/01/13 12:25:38;;;;;;;;;;;18.10;55.30;;;;;;5109780;27;43150;-84
2024/01/13 12:28:04;;;;;;;;;;;18.20;55.30;;;;;;5102556;27;43730;-80
2024/01/13 12:30:29;;;;;;;;;;;18.10;55.40;;;;;;5106907;27;43116;-83
2024/01/13 12:32:55;;;;;;;;;;;18.10;55.30;;;;;;5101504;27;43717;-82
2024/01/13 12:35:24;;;;;;;;;;;18.20;55.30;;;;;;5111524;27;43014;-80
2024/01/13 12:37:51;;;;;;;;;;;18.10;55.30;;;;;;5115139;27;42937;-81
2024/01/13 12:40:18;;;;;;;;;;;18.10;55.30;;;;;;5111896;27;43007;-81
2024/01/13 12:42:44;;;;;;;;;;;18.10;55.20;;;;;;5103908;27;43162;-84
2024/01/13 12:45:14;;;;;;;;;;;18.20;55.30;;;;;;5104576;27;43185;-84
2024/01/13 12:47:40;;;;;;;;;;;18.20;55.30;;;;;;5106039;27;43069;-81
2024/01/13 12:50:06;;;;;;;;;;;18.20;55.30;;;;;;5107958;27;42936;-85
2024/01/13 12:52:32;;;;;;;;;;;18.20;55.20;;;;;;5093892;27;43395;-85
2024/01/13 12:54:58;;;;;;;;;;;18.10;55.30;;;;;;5103040;27;43043;-81
2024/01/13 12:57:23;;;;;;;;;;;18.00;54.70;;;;;;5104033;27;44468;-85
2024/01/13 12:59:49;;;;;;;;;;;18.20;55.30;;;;;;5103942;27;43075;-82
2024/01/13 13:02:15;;;;;;;;;;;18.20;55.20;;;;;;5097225;27;44529;-77
2024/01/13 13:04:41;;;;;;;;;;;18.10;54.70;;;;;;5099462;27;42971;-84
2024/01/13 13:07:06;;;;;;;;;;;18.10;54.70;;;;;;5098786;27;43873;-78
2024/01/13 13:09:32;;;;;;;;;;;18.20;55.40;;;;;;5114579;27;43165;-80
2024/01/13 13:11:59;;;;;;;;;;;18.10;54.70;;;;;;5095344;27;43977;-82
2024/01/13 13:14:25;;;;;;;;;;;18.20;55.50;;;;;;5096000;27;43643;-82
2024/01/13 13:16:50;;;;;;;;;;;18.30;55.70;;;;;;5101546;27;43490;-80
2024/01/13 13:19:18;;;;;;;;;;;18.20;55.60;;;;;;5106864;27;43529;-83
2024/01/13 13:21:43;;;;;;;;;;;18.20;54.80;;;;;;5102007;27;42993;-83
2024/01/13 13:24:09;;;;;;;;;;;18.10;55.50;;;;;;5104299;27;43010;-83
2024/01/13 13:26:35;;;;;;;;;;;18.20;55.40;;;;;;5102534;27;43900;-84
2024/01/13 13:29:00;;;;;;;;;;;18.20;54.90;;;;;;5099655;27;42889;-83
2024/01/13 13:31:26;;;;;;;;;;;18.30;55.50;;;;;;5098537;27;43479;-87
2024/01/13 13:33:51;;;;;;;;;;;18.00;55.80;;;;;;5097221;27;42849;-86
2024/01/13 13:36:17;;;;;;;;;;;18.20;55.60;;;;;;5105102;27;43300;-85
2024/01/13 13:38:42;;;;;;;;;;;18.20;55.50;;;;;;5102522;27;43063;-84
2024/01/13 13:41:08;;;;;;;;;;;18.20;55.60;;;;;;5106190;27;42932;-84
2024/01/13 13:43:34;;;;;;;;;;;18.20;55.20;;;;;;5103830;27;43900;-83
2024/01/13 13:46:00;;;;;;;;;;;18.20;55.90;;;;;;5095152;27;43352;-84
2024/01/13 13:48:28;;;;;;;;;;;18.30;55.90;;;;;;5104240;27;43084;-88
2024/01/13 13:50:54;;;;;;;;;;;18.20;55.80;;;;;;5109286;27;42903;-90
2024/01/13 13:53:19;;;;;;;;;;;18.20;55.30;;;;;;5095391;27;43182;-87
2024/01/13 13:55:45;;;;;;;;;;;18.20;55.30;;;;;;5098443;27;43924;-88
2024/01/13 13:58:10;;;;;;;;;;;18.20;55.30;;;;;;5096392;27;43237;-86
2024/01/13 14:00:36;;;;;;;;;;;18.20;55.30;;;;;;5103336;27;42889;-87
2024/01/13 14:03:02;;;;;;;;;;;18.20;56.40;;;;;;5096606;27;42977;-87
2024/01/13 14:05:27;;;;;;;;;;;18.20;55.40;;;;;;5101497;27;43221;-89
2024/01/13 14:07:53;;;;;;;;;;;18.40;57.00;;;;;;5114069;27;43007;-87
2024/01/13 14:10:18;;;;;;;;;;;18.20;55.40;;;;;;5106668;27;43363;-81
2024/01/13 14:12:44;;;;;;;;;;;18.20;56.10;;;;;;5108180;27;43424;-88